createdAt,value
2022-07-31T00:00:49.575Z,17.20
2022-07-31T00:03:19.125Z,17.20
2022-07-31T00:05:47.380Z,17.30
2022-07-31T00:08:15.560Z,17.30
2022-07-31T00:10:43.838Z,17.30
2022-07-31T00:13:12.012Z,17.20
2022-07-31T00:15:40.317Z,17.20
2022-07-31T00:18:08.876Z,17.20
2022-07-31T00:20:38.623Z,17.10
2022-07-31T00:23:06.884Z,17.10
2022-07-31T00:25:35.201Z,17.10
2022-07-31T00:28:03.384Z,17.10
2022-07-31T00:30:31.821Z,17.10
2022-07-31T00:32:59.973Z,17.20
2022-07-31T00:35:28.607Z,17.10
2022-07-31T00:38:24.644Z,17.10
2022-07-31T00:40:49.214Z,17.10
2022-07-31T00:43:18.509Z,17.20
2022-07-31T00:45:46.838Z,17.20
2022-07-31T00:48:20.465Z,17.20
2022-07-31T00:50:48.633Z,17.20
2022-07-31T00:53:18.147Z,17.20
2022-07-31T00:55:48.444Z,17.20
2022-07-31T00:58:20.323Z,17.20
2022-07-31T01:00:48.628Z,17.20
2022-07-31T01:03:16.790Z,17.10
2022-07-31T01:05:45.084Z,17.20
2022-07-31T01:08:13.251Z,17.20
2022-07-31T01:10:47.261Z,17.20
2022-07-31T01:13:18.004Z,17.20
2022-07-31T01:15:46.257Z,17.20
2022-07-31T01:18:14.509Z,17.20
2022-07-31T01:20:44.590Z,17.20
2022-07-31T01:23:21.834Z,17.20
2022-07-31T01:25:59.794Z,17.10
2022-07-31T01:28:41.764Z,17.20
2022-07-31T01:31:26.175Z,17.30
2022-07-31T01:34:01.585Z,17.20
2022-07-31T01:36:34.725Z,17.20
2022-07-31T01:39:03.144Z,17.20
2022-07-31T01:41:33.694Z,17.20
2022-07-31T01:44:03.352Z,17.20
2022-07-31T01:46:31.550Z,17.20
2022-07-31T01:49:05.797Z,17.10
2022-07-31T01:51:34.157Z,17.10
2022-07-31T01:54:02.282Z,17.20
2022-07-31T01:56:31.209Z,17.10
2022-07-31T01:58:59.791Z,17.10
2022-07-31T02:01:29.471Z,17.10
2022-07-31T02:04:00.575Z,17.00
2022-07-31T02:06:29.682Z,17.00
2022-07-31T02:08:57.905Z,16.90
2022-07-31T02:11:26.245Z,16.90
2022-07-31T02:13:54.607Z,17.00
2022-07-31T02:16:22.794Z,16.90
2022-07-31T02:18:52.844Z,17.00
2022-07-31T02:21:21.047Z,16.90
2022-07-31T02:23:49.262Z,16.90
2022-07-31T02:26:17.508Z,16.90
2022-07-31T02:28:45.886Z,16.80
2022-07-31T02:31:14.752Z,16.80
2022-07-31T02:33:44.521Z,16.80
2022-07-31T02:36:14.307Z,16.70
2022-07-31T02:38:42.592Z,16.70
2022-07-31T02:41:11.427Z,16.70
2022-07-31T02:43:39.938Z,16.80
2022-07-31T02:46:08.208Z,16.70
2022-07-31T02:48:37.258Z,16.60
2022-07-31T02:51:05.757Z,16.70
2022-07-31T02:53:35.673Z,16.60
2022-07-31T02:56:04.647Z,16.70
2022-07-31T02:58:32.936Z,16.60
2022-07-31T03:01:01.925Z,16.60
2022-07-31T03:03:30.447Z,16.60
2022-07-31T03:05:59.279Z,16.60
2022-07-31T03:08:27.900Z,16.60
2022-07-31T03:10:58.175Z,16.50
2022-07-31T03:13:27.479Z,16.50
2022-07-31T03:15:55.677Z,16.40
2022-07-31T03:18:23.912Z,16.40
2022-07-31T03:20:52.889Z,16.40
2022-07-31T03:23:22.618Z,16.40
2022-07-31T03:25:51.462Z,16.30
2022-07-31T03:28:21.166Z,16.40
2022-07-31T03:30:51.877Z,16.30
2022-07-31T03:33:24.673Z,16.30
2022-07-31T03:35:53.372Z,16.30
2022-07-31T03:38:38.849Z,16.30
2022-07-31T03:41:10.149Z,16.20
2022-07-31T03:43:44.303Z,16.30
2022-07-31T03:46:17.663Z,16.20
2022-07-31T03:48:46.162Z,16.20
2022-07-31T03:51:14.528Z,16.10
2022-07-31T03:53:43.018Z,16.30
2022-07-31T03:56:11.175Z,16.30
2022-07-31T03:58:40.734Z,16.10
2022-07-31T04:01:10.544Z,16.10
2022-07-31T04:03:40.562Z,16.20
2022-07-31T04:06:09.290Z,16.20
2022-07-31T04:08:37.443Z,16.10
2022-07-31T04:11:05.663Z,16.10
2022-07-31T04:13:33.829Z,16.10
2022-07-31T04:16:03.419Z,16.10
2022-07-31T04:18:31.607Z,16.10
2022-07-31T04:20:59.960Z,16.10
2022-07-31T04:23:32.402Z,16.10
2022-07-31T04:26:00.932Z,16.10
2022-07-31T04:28:29.110Z,16.10
2022-07-31T04:30:57.349Z,16.10
2022-07-31T04:33:26.894Z,16.10
2022-07-31T04:35:55.185Z,16.10
2022-07-31T04:38:23.332Z,16.00
2022-07-31T04:40:51.846Z,16.00
2022-07-31T04:43:20.143Z,16.00
2022-07-31T04:45:48.469Z,16.00
2022-07-31T04:48:16.691Z,16.00
2022-07-31T04:50:46.583Z,16.00
2022-07-31T04:53:14.742Z,15.90
2022-07-31T04:56:03.525Z,15.90
2022-07-31T04:58:31.786Z,16.00
2022-07-31T05:01:00.044Z,15.90
2022-07-31T05:03:28.280Z,16.00
2022-07-31T05:05:57.834Z,15.90
2022-07-31T05:08:26.030Z,15.90
2022-07-31T05:11:11.588Z,16.00
2022-07-31T05:13:39.788Z,15.90
2022-07-31T05:16:12.989Z,15.90
2022-07-31T05:18:41.174Z,15.80
2022-07-31T05:21:10.740Z,15.90
2022-07-31T05:23:39.024Z,15.70
2022-07-31T05:26:07.217Z,15.60
2022-07-31T05:28:35.361Z,15.60
2022-07-31T05:31:03.675Z,15.60
2022-07-31T05:33:31.866Z,15.60
2022-07-31T05:36:00.702Z,15.50
2022-07-31T05:38:30.280Z,15.60
2022-07-31T05:40:58.553Z,15.60
2022-07-31T05:43:27.935Z,15.60
2022-07-31T05:45:56.142Z,15.60
2022-07-31T05:48:24.466Z,15.60
2022-07-31T05:50:53.025Z,15.60
2022-07-31T05:53:21.441Z,15.60
2022-07-31T05:55:51.408Z,15.60
2022-07-31T05:58:20.362Z,15.70
2022-07-31T06:00:49.411Z,15.70
2022-07-31T06:03:17.617Z,15.50
2022-07-31T06:05:45.809Z,15.60
2022-07-31T06:08:13.985Z,15.50
2022-07-31T06:10:42.166Z,15.50
2022-07-31T06:13:12.584Z,15.40
2022-07-31T06:15:42.446Z,15.40
2022-07-31T06:18:17.674Z,15.50
2022-07-31T06:20:46.063Z,15.50
2022-07-31T06:23:14.540Z,15.50
2022-07-31T06:25:51.003Z,15.50
2022-07-31T06:28:20.646Z,15.50
2022-07-31T06:31:03.683Z,15.50
2022-07-31T06:33:37.717Z,15.50
2022-07-31T06:36:06.665Z,15.50
2022-07-31T06:38:34.836Z,15.40
2022-07-31T06:41:03.225Z,15.30
2022-07-31T06:43:32.789Z,15.50
2022-07-31T06:46:01.014Z,15.40
2022-07-31T06:48:29.205Z,15.30
2022-07-31T06:51:21.071Z,15.40
2022-07-31T06:53:45.612Z,15.40
2022-07-31T06:56:13.767Z,15.50
2022-07-31T06:58:43.351Z,15.50
2022-07-31T07:01:11.630Z,15.40
2022-07-31T07:03:40.245Z,15.40
2022-07-31T07:06:08.466Z,15.30
2022-07-31T07:08:36.758Z,15.40
2022-07-31T07:11:04.953Z,15.40
2022-07-31T07:13:45.891Z,15.30
2022-07-31T07:16:16.801Z,15.30
2022-07-31T07:18:45.021Z,15.40
2022-07-31T07:21:13.217Z,15.40
2022-07-31T07:23:41.433Z,15.30
2022-07-31T07:26:09.674Z,15.40
2022-07-31T07:28:37.879Z,15.20
2022-07-31T07:31:06.279Z,15.30
2022-07-31T07:33:39.591Z,15.30
2022-07-31T07:36:08.904Z,15.20
2022-07-31T07:38:51.862Z,15.20
2022-07-31T07:41:20.190Z,15.20
2022-07-31T07:43:51.601Z,15.20
2022-07-31T07:46:21.128Z,15.10
2022-07-31T07:48:51.803Z,15.20
2022-07-31T07:51:20.703Z,15.10
2022-07-31T07:53:48.981Z,15.20
2022-07-31T07:56:17.292Z,15.20
2022-07-31T07:58:45.503Z,15.20
2022-07-31T08:01:13.880Z,15.20
2022-07-31T08:03:50.716Z,15.20
2022-07-31T08:06:22.676Z,15.20
2022-07-31T08:08:50.872Z,15.20
2022-07-31T08:11:19.918Z,15.20
2022-07-31T08:13:50.849Z,15.20
2022-07-31T08:16:20.455Z,15.20
2022-07-31T08:18:48.759Z,15.20
2022-07-31T08:21:16.963Z,15.20
2022-07-31T08:23:46.478Z,15.20
2022-07-31T08:26:14.922Z,15.20
2022-07-31T08:28:49.901Z,15.30
2022-07-31T08:31:18.711Z,15.30
2022-07-31T08:33:47.561Z,15.30
2022-07-31T08:36:15.874Z,15.30
2022-07-31T08:38:44.211Z,15.30
2022-07-31T08:41:15.763Z,15.20
2022-07-31T08:44:00.135Z,15.20
2022-07-31T08:46:31.843Z,15.20
2022-07-31T08:49:00.181Z,15.10
2022-07-31T08:51:28.436Z,15.10
2022-07-31T08:53:56.648Z,15.20
2022-07-31T08:56:26.880Z,15.20
2022-07-31T08:58:57.114Z,15.20
2022-07-31T09:01:25.418Z,15.30
2022-07-31T09:03:54.150Z,15.40
2022-07-31T09:06:22.492Z,15.30
2022-07-31T09:08:50.670Z,15.30
2022-07-31T09:11:19.878Z,15.30
2022-07-31T09:14:01.964Z,15.30
2022-07-31T09:16:31.511Z,15.40
2022-07-31T09:19:00.123Z,15.20
2022-07-31T09:21:39.654Z,15.30
2022-07-31T09:24:10.296Z,15.30
2022-07-31T09:26:41.008Z,15.30
2022-07-31T09:29:12.671Z,15.30
2022-07-31T09:31:40.945Z,15.30
2022-07-31T09:34:09.200Z,15.30
2022-07-31T09:36:37.414Z,15.30
2022-07-31T09:39:14.641Z,15.40
2022-07-31T09:42:01.112Z,15.30
2022-07-31T09:44:45.751Z,15.30
2022-07-31T09:47:23.570Z,15.40
2022-07-31T09:49:55.807Z,15.40
2022-07-31T09:52:24.402Z,15.30
2022-07-31T09:55:02.318Z,15.40
2022-07-31T09:57:30.551Z,15.40
2022-07-31T10:00:00.176Z,15.40
2022-07-31T10:02:28.528Z,15.30
2022-07-31T10:04:58.087Z,15.40
2022-07-31T10:07:32.205Z,15.40
2022-07-31T10:10:01.245Z,15.30
2022-07-31T10:12:30.387Z,15.40
2022-07-31T10:15:07.356Z,15.50
2022-07-31T10:17:39.795Z,15.50
2022-07-31T10:20:09.098Z,15.60
2022-07-31T10:22:43.980Z,15.60
2022-07-31T10:25:13.442Z,15.70
2022-07-31T10:27:41.948Z,15.70
2022-07-31T10:30:12.368Z,15.70
2022-07-31T10:32:40.641Z,15.70
2022-07-31T10:35:09.241Z,15.70
2022-07-31T10:37:40.925Z,15.70
2022-07-31T10:40:13.541Z,15.70
2022-07-31T10:42:45.626Z,15.70
2022-07-31T10:45:15.986Z,15.70
2022-07-31T10:47:55.305Z,15.70
2022-07-31T10:50:24.012Z,15.70
2022-07-31T10:52:55.036Z,15.70
2022-07-31T10:55:27.209Z,15.70
2022-07-31T10:57:57.050Z,15.70
2022-07-31T11:00:28.538Z,15.70
2022-07-31T11:02:58.646Z,15.70
2022-07-31T11:05:28.196Z,15.60
2022-07-31T11:08:01.751Z,15.60
2022-07-31T11:10:30.215Z,15.70
2022-07-31T11:13:01.884Z,15.60
2022-07-31T11:15:31.759Z,15.50
2022-07-31T11:18:23.842Z,15.60
2022-07-31T11:20:48.222Z,15.60
2022-07-31T11:23:17.607Z,15.60
2022-07-31T11:25:46.996Z,15.60
2022-07-31T11:28:16.261Z,15.70
2022-07-31T11:30:55.515Z,15.60
2022-07-31T11:33:42.497Z,15.60
2022-07-31T11:36:12.631Z,15.70
2022-07-31T11:38:41.784Z,15.70
2022-07-31T11:41:10.432Z,15.70
2022-07-31T11:43:45.034Z,15.70
2022-07-31T11:46:20.285Z,15.70
2022-07-31T11:48:48.867Z,15.70
2022-07-31T11:51:20.129Z,15.60
2022-07-31T11:53:54.098Z,15.60
2022-07-31T11:56:26.085Z,15.60
2022-07-31T11:58:55.271Z,15.60
2022-07-31T12:01:28.437Z,15.50
2022-07-31T12:03:56.777Z,15.60
2022-07-31T12:06:25.102Z,15.70
2022-07-31T12:08:53.416Z,15.70
2022-07-31T12:11:21.778Z,15.70
2022-07-31T12:13:50.586Z,15.70
2022-07-31T12:16:19.699Z,15.70
2022-07-31T12:18:49.957Z,15.80
2022-07-31T12:21:18.224Z,15.70
2022-07-31T12:23:47.618Z,15.70
2022-07-31T12:26:24.295Z,15.80
2022-07-31T12:28:59.916Z,15.80
2022-07-31T12:31:28.438Z,15.80
2022-07-31T12:33:57.951Z,15.80
2022-07-31T12:36:26.305Z,15.90
2022-07-31T12:39:01.070Z,15.90
2022-07-31T12:41:29.642Z,16.00
2022-07-31T12:43:58.814Z,16.00
2022-07-31T12:46:36.865Z,16.00
2022-07-31T12:49:06.735Z,16.10
2022-07-31T12:51:45.637Z,16.00
2022-07-31T12:54:15.243Z,16.00
2022-07-31T12:56:43.489Z,16.10
2022-07-31T12:59:12.582Z,16.10
2022-07-31T13:01:40.988Z,16.20
2022-07-31T13:04:19.253Z,16.20
2022-07-31T13:06:49.101Z,16.30
2022-07-31T13:09:17.433Z,16.20
2022-07-31T13:11:48.759Z,16.30
2022-07-31T13:14:17.783Z,16.30
2022-07-31T13:16:46.128Z,16.30
2022-07-31T13:19:15.793Z,16.30
2022-07-31T13:21:49.030Z,16.30
2022-07-31T13:24:18.902Z,16.30
2022-07-31T13:26:47.325Z,16.40
2022-07-31T13:29:15.506Z,16.40
2022-07-31T13:31:43.878Z,16.40
2022-07-31T13:34:12.076Z,16.50
2022-07-31T13:36:41.758Z,16.50
2022-07-31T13:39:09.997Z,16.50
2022-07-31T13:41:39.536Z,16.60
2022-07-31T13:44:08.235Z,16.50
2022-07-31T13:46:36.628Z,16.60
2022-07-31T13:49:08.611Z,16.60
2022-07-31T13:51:37.311Z,16.70
2022-07-31T13:54:06.999Z,16.70
2022-07-31T13:56:41.136Z,16.70
2022-07-31T13:59:11.340Z,16.70
2022-07-31T14:02:02.872Z,16.80
2022-07-31T14:04:28.532Z,16.80
2022-07-31T14:07:00.834Z,16.80
2022-07-31T14:09:30.586Z,16.80
2022-07-31T14:11:58.809Z,16.90
2022-07-31T14:14:32.110Z,16.90
2022-07-31T14:17:00.312Z,16.90
2022-07-31T14:19:28.598Z,16.90
2022-07-31T14:21:57.541Z,16.90
2022-07-31T14:24:25.986Z,16.90
2022-07-31T14:26:56.083Z,16.80
2022-07-31T14:29:24.290Z,16.90
2022-07-31T14:31:52.547Z,16.90
2022-07-31T14:34:20.731Z,16.90
2022-07-31T14:36:49.017Z,16.90
2022-07-31T14:39:17.223Z,16.90
2022-07-31T14:41:45.471Z,16.90
2022-07-31T14:44:20.852Z,16.90
2022-07-31T14:46:50.230Z,16.90
2022-07-31T14:49:18.530Z,17.00
2022-07-31T14:51:47.507Z,16.90
2022-07-31T14:54:15.775Z,16.90
2022-07-31T14:57:01.431Z,16.90
2022-07-31T14:59:31.420Z,16.90
2022-07-31T15:01:59.640Z,16.90
2022-07-31T15:04:27.836Z,16.90
2022-07-31T15:07:12.695Z,16.90
2022-07-31T15:09:44.175Z,16.90
2022-07-31T15:12:16.781Z,16.90
2022-07-31T15:14:46.514Z,16.90
2022-07-31T15:17:14.734Z,16.90
2022-07-31T15:19:43.064Z,16.90
2022-07-31T15:22:16.494Z,16.90
2022-07-31T15:24:49.006Z,17.00
2022-07-31T15:27:18.238Z,17.00
2022-07-31T15:30:03.885Z,17.00
2022-07-31T15:32:36.207Z,17.00
2022-07-31T15:35:04.968Z,17.00
2022-07-31T15:37:35.292Z,17.00
2022-07-31T15:40:05.159Z,17.00
2022-07-31T15:42:33.674Z,17.00
2022-07-31T15:45:03.400Z,17.10
2022-07-31T15:47:31.655Z,17.00
2022-07-31T15:49:59.939Z,17.10
2022-07-31T15:52:28.287Z,17.10
2022-07-31T15:54:56.604Z,17.10
2022-07-31T15:57:24.961Z,17.10
2022-07-31T15:59:54.505Z,17.00
2022-07-31T16:02:24.332Z,17.00
2022-07-31T16:04:54.261Z,17.10
2022-07-31T16:08:30.686Z,17.10
2022-07-31T16:10:16.733Z,17.10
2022-07-31T16:12:46.049Z,17.10
2022-07-31T16:15:14.275Z,17.10
2022-07-31T16:17:43.861Z,17.20
2022-07-31T16:20:25.517Z,17.20
2022-07-31T16:22:56.662Z,17.20
2022-07-31T16:25:25.128Z,17.20
2022-07-31T16:27:53.321Z,17.20
2022-07-31T16:30:21.911Z,17.20
2022-07-31T16:32:51.577Z,17.20
2022-07-31T16:35:20.091Z,17.20
2022-07-31T16:37:51.584Z,17.20
2022-07-31T16:40:26.998Z,17.20
2022-07-31T16:43:46.666Z,17.30
2022-07-31T16:45:50.855Z,17.30
2022-07-31T16:48:20.690Z,17.30
2022-07-31T16:50:54.330Z,17.30
2022-07-31T16:54:10.033Z,17.30
2022-07-31T16:56:11.905Z,17.40
2022-07-31T16:58:40.230Z,17.40
2022-07-31T17:01:54.115Z,17.40
2022-07-31T17:04:01.331Z,17.40
2022-07-31T17:06:36.611Z,17.50
2022-07-31T17:09:16.569Z,17.40
2022-07-31T17:11:47.146Z,17.50
2022-07-31T17:14:15.470Z,17.50
2022-07-31T17:16:47.663Z,17.50
2022-07-31T17:19:42.103Z,17.50
2022-07-31T17:22:07.402Z,17.50
2022-07-31T17:24:37.360Z,17.50
2022-07-31T17:27:06.907Z,17.50
2022-07-31T17:29:35.477Z,17.50
2022-07-31T17:32:03.800Z,17.50
2022-07-31T17:34:33.496Z,17.50
2022-07-31T17:37:02.042Z,17.50
2022-07-31T17:39:31.169Z,17.50
2022-07-31T17:41:59.684Z,17.50
2022-07-31T17:44:28.031Z,17.50
2022-07-31T17:46:57.782Z,17.50
2022-07-31T17:49:27.443Z,17.50
2022-07-31T17:51:59.598Z,17.50
2022-07-31T17:54:28.668Z,17.50
2022-07-31T17:56:56.951Z,17.50
2022-07-31T17:59:26.072Z,17.40
2022-07-31T18:02:00.448Z,17.40
2022-07-31T18:04:29.092Z,17.40
2022-07-31T18:06:58.723Z,17.30
2022-07-31T18:09:27.061Z,17.30
2022-07-31T18:11:55.475Z,17.30
2022-07-31T18:14:24.489Z,17.20
2022-07-31T18:16:53.274Z,17.20
2022-07-31T18:19:22.575Z,17.20
2022-07-31T18:21:51.223Z,17.20
2022-07-31T18:24:22.293Z,17.20
2022-07-31T18:26:50.621Z,17.20
2022-07-31T18:29:19.066Z,17.20
2022-07-31T18:31:47.417Z,17.20
2022-07-31T18:34:15.597Z,17.20
2022-07-31T18:36:43.892Z,17.30
2022-07-31T18:39:12.094Z,17.30
2022-07-31T18:41:48.349Z,17.30
2022-07-31T18:44:17.504Z,17.30
2022-07-31T18:46:47.061Z,17.40
2022-07-31T18:51:02.052Z,17.40
2022-07-31T18:52:03.825Z,17.40
2022-07-31T18:54:32.284Z,17.40
2022-07-31T18:57:03.525Z,17.50
2022-07-31T18:59:31.728Z,17.50
2022-07-31T19:02:00.644Z,17.50
2022-07-31T19:04:29.238Z,17.50
2022-07-31T19:06:57.546Z,17.50
2022-07-31T19:09:25.753Z,17.50
2022-07-31T19:12:03.633Z,17.50
2022-07-31T19:14:37.243Z,17.50
2022-07-31T19:17:05.419Z,17.50
2022-07-31T19:19:49.564Z,17.50
2022-07-31T19:22:23.702Z,17.50
2022-07-31T19:24:52.021Z,17.50
2022-07-31T19:27:20.499Z,17.50
2022-07-31T19:29:50.557Z,17.40
2022-07-31T19:32:18.727Z,17.50
2022-07-31T19:34:48.031Z,17.40
2022-07-31T19:37:20.549Z,17.40
2022-07-31T19:39:49.357Z,17.30
2022-07-31T19:42:17.583Z,17.20
2022-07-31T19:44:45.957Z,17.20
2022-07-31T19:47:15.598Z,17.20
2022-07-31T19:49:44.949Z,17.10
2022-07-31T19:52:13.227Z,17.00
2022-07-31T19:54:41.530Z,16.90
2022-07-31T19:57:11.025Z,16.90
2022-07-31T19:59:39.672Z,16.80
2022-07-31T20:02:08.211Z,16.80
2022-07-31T20:04:38.138Z,16.90
2022-07-31T20:07:06.369Z,16.80
2022-07-31T20:09:34.720Z,16.80
2022-07-31T20:12:03.344Z,16.70
2022-07-31T20:14:31.860Z,16.70
2022-07-31T20:17:00.080Z,16.70
2022-07-31T20:19:28.579Z,16.60
2022-07-31T20:21:58.973Z,16.60
2022-07-31T20:24:27.927Z,16.50
2022-07-31T20:26:56.220Z,16.50
2022-07-31T20:29:25.010Z,16.50
2022-07-31T20:31:53.575Z,16.50
2022-07-31T20:34:22.845Z,16.50
2022-07-31T20:36:51.198Z,16.50
2022-07-31T20:39:23.488Z,16.40
2022-07-31T20:42:03.295Z,16.40
2022-07-31T20:44:31.923Z,16.50
2022-07-31T20:47:00.208Z,16.40
2022-07-31T20:49:35.385Z,16.40
2022-07-31T20:52:04.814Z,16.40
2022-07-31T20:54:35.360Z,16.40
2022-07-31T20:57:03.777Z,16.40
2022-07-31T20:59:32.387Z,16.40
2022-07-31T21:02:00.628Z,16.40
2022-07-31T21:04:28.801Z,16.40
2022-07-31T21:06:57.035Z,16.40
2022-07-31T21:09:25.273Z,16.40
2022-07-31T21:11:54.878Z,16.30
2022-07-31T21:14:23.259Z,16.30
2022-07-31T21:16:51.490Z,16.30
2022-07-31T21:19:20.031Z,16.30
2022-07-31T21:21:48.346Z,16.30
2022-07-31T21:24:17.055Z,16.30
2022-07-31T21:26:45.902Z,16.30
2022-07-31T21:29:20.952Z,16.30
2022-07-31T21:31:50.219Z,16.30
2022-07-31T21:34:19.108Z,16.30
2022-07-31T21:36:48.783Z,16.20
2022-07-31T21:39:19.131Z,16.30
2022-07-31T21:41:48.033Z,16.20
2022-07-31T21:44:18.696Z,16.20
2022-07-31T21:46:51.745Z,16.20
2022-07-31T21:49:20.729Z,16.20
2022-07-31T21:51:49.691Z,16.20
2022-07-31T21:54:19.033Z,16.20
2022-07-31T21:56:47.210Z,16.20
2022-07-31T21:59:15.761Z,16.20
2022-07-31T22:01:57.982Z,16.20
2022-07-31T22:04:34.745Z,16.20
2022-07-31T22:07:21.194Z,16.20
2022-07-31T22:09:49.529Z,16.20
2022-07-31T22:12:17.751Z,16.10
2022-07-31T22:14:46.285Z,16.10
2022-07-31T22:17:14.484Z,16.10
2022-07-31T22:19:47.239Z,16.10
2022-07-31T22:22:17.241Z,16.10
2022-07-31T22:24:46.428Z,16.00
2022-07-31T22:27:31.904Z,16.00
2022-07-31T22:30:00.438Z,16.00
2022-07-31T22:32:28.958Z,15.90
2022-07-31T22:34:58.704Z,15.90
2022-07-31T22:37:27.991Z,15.80
2022-07-31T22:39:56.441Z,15.80
2022-07-31T22:42:25.270Z,15.70
2022-07-31T22:44:53.792Z,15.70
2022-07-31T22:47:22.912Z,15.60
2022-07-31T22:49:51.544Z,15.60
2022-07-31T22:52:21.577Z,15.60
2022-07-31T22:54:49.792Z,15.50
2022-07-31T22:57:18.027Z,15.40
2022-07-31T22:59:48.680Z,15.40
2022-07-31T23:02:16.995Z,15.40
2022-07-31T23:04:45.610Z,15.40
2022-07-31T23:07:14.413Z,15.30
2022-07-31T23:09:44.113Z,15.30
2022-07-31T23:12:12.303Z,15.20
2022-07-31T23:14:40.457Z,15.20
2022-07-31T23:17:08.687Z,15.30
2022-07-31T23:19:54.016Z,15.30
2022-07-31T23:22:33.493Z,15.30
2022-07-31T23:25:03.885Z,15.20
2022-07-31T23:27:32.069Z,15.20
2022-07-31T23:30:00.467Z,15.10
2022-07-31T23:32:28.824Z,15.10
2022-07-31T23:34:57.123Z,15.10
2022-07-31T23:37:25.296Z,15.10
2022-07-31T23:39:53.843Z,15.10
2022-07-31T23:42:40.601Z,15.10
2022-07-31T23:45:11.299Z,15.00
2022-07-31T23:47:45.889Z,15.10
2022-07-31T23:50:15.229Z,15.00
2022-07-31T23:52:43.447Z,14.90
2022-07-31T23:55:11.739Z,14.90
2022-07-31T23:57:42.884Z,14.90
